Time;durP1;ratioP1;P1;durP2;ratioP2;P2;SDS_P1;SDS_P2;PMS_P1;PMS_P2;Temp;Humidity;BMP_temperature;BMP_pressure;BME280_temperature;BME280_humidity;BME280_pressure;Samples;Min_cycle;Max_cycle;Signal;HPM_P1;HPM_P2
2022/10/05 00:00:16;;;;;;;;;3.33;3.33;;;;;19.12;63.91;-19718.91;4965331;27;45403;-75
2022/10/05 00:02:43;;;;;;;;;4.00;3.00;;;;;19.04;64.08;-19716.66;4997380;28;45473;-74
2022/10/05 00:05:24;;;;;;;;;4.00;4.00;;;;;19.05;63.93;-19717.06;4996783;27;45436;-74
2022/10/05 00:07:51;;;;;;;;;3.00;3.00;;;;;18.93;64.41;-19713.84;5003215;27;45393;-75
2022/10/05 00:10:18;;;;;;;;;5.00;4.00;;;;;18.87;64.52;-19712.38;5004908;27;45255;-74
2022/10/05 00:12:47;;;;;;;;;3.33;3.33;;;;;18.90;64.37;-19713.03;4994665;27;46216;-75
2022/10/05 00:15:16;;;;;;;;;4.00;4.00;;;;;18.92;64.93;-19713.59;4994586;27;45475;-75
2022/10/05 00:17:42;;;;;;;;;3.00;3.00;;;;;18.93;64.81;-19713.84;4993626;27;45416;-74
2022/10/05 00:20:20;;;;;;;;;3.67;3.67;;;;;18.93;64.78;-19713.84;5009710;27;45455;-74
2022/10/05 00:22:46;;;;;;;;;4.00;4.00;;;;;18.94;64.67;-19714.13;4993784;27;45535;-74
2022/10/05 00:25:16;;;;;;;;;4.00;3.00;;;;;18.91;64.90;-19713.44;4998667;27;47442;-74
2022/10/05 00:27:44;;;;;;;;;5.67;4.33;;;;;18.96;65.10;-19714.78;4997962;27;45623;-74
2022/10/05 00:30:15;;;;;;;;;4.00;4.00;;;;;18.91;65.72;-19713.31;4990980;28;45325;-75
2022/10/05 00:32:41;;;;;;;;;8.67;5.00;;;;;18.87;65.52;-19712.25;5001946;27;45459;-74
2022/10/05 00:35:08;;;;;;;;;4.33;4.00;;;;;18.93;66.06;-19713.97;4983606;28;46120;-74
2022/10/05 00:37:33;;;;;;;;;5.00;5.00;;;;;18.88;66.04;-19712.66;4995185;27;45733;-75
2022/10/05 00:39:58;;;;;;;;;5.00;4.00;;;;;18.95;66.05;-19714.50;5008787;27;45337;-74
2022/10/05 00:42:44;;;;;;;;;6.67;4.00;;;;;18.97;66.01;-19714.91;5002581;27;45442;-74
2022/10/05 00:45:32;;;;;;;;;7.67;4.33;;;;;18.93;65.42;-19713.84;4994419;27;46704;-74
2022/10/05 00:48:16;;;;;;;;;4.00;3.00;;;;;19.05;65.88;-19717.06;5019602;27;45521;-74
2022/10/05 00:51:18;;;;;;;;;3.33;3.33;;;;;19.09;65.73;-19718.13;4988399;27;45596;-74
2022/10/05 00:53:46;;;;;;;;;5.00;5.00;;;;;19.10;65.37;-19718.38;5033325;27;45548;-76
2022/10/05 00:56:48;;;;;;;;;5.00;5.00;;;;;19.10;65.92;-19718.25;5021945;27;46100;-77
2022/10/05 00:59:27;;;;;;;;;5.00;3.00;;;;;19.12;65.57;-19718.78;4995870;27;45403;-76
2022/10/05 01:02:03;;;;;;;;;3.00;3.00;;;;;19.05;66.26;-19717.06;5000486;27;45514;-77
2022/10/05 01:04:50;;;;;;;;;4.00;4.00;;;;;19.08;66.14;-19717.72;5010711;27;45623;-76
2022/10/05 01:07:19;;;;;;;;;3.33;2.67;;;;;19.07;66.41;-19717.59;4995662;27;48164;-76
2022/10/05 01:10:09;;;;;;;;;4.00;4.00;;;;;19.09;66.65;-19718.00;4983371;27;45407;-77
2022/10/05 01:12:53;;;;;;;;;3.67;3.67;;;;;19.09;66.22;-19718.13;4996323;27;45256;-76
2022/10/05 01:15:21;;;;;;;;;4.67;4.67;;;;;19.14;66.65;-19719.31;4991074;27;45897;-77
2022/10/05 01:18:06;;;;;;;;;5.00;5.00;;;;;19.12;66.27;-19718.91;5000551;27;45448;-76
2022/10/05 01:20:41;;;;;;;;;4.67;4.67;;;;;19.09;66.59;-19718.00;5005381;27;45361;-77
2022/10/05 01:23:07;;;;;;;;;5.00;5.00;;;;;19.07;66.65;-19717.59;4997783;27;45412;-76
2022/10/05 01:25:54;;;;;;;;;5.00;5.00;;;;;19.74;65.70;-19735.06;4990309;27;45519;-77
2022/10/05 01:28:36;;;;;;;;;5.33;4.67;;;;;19.77;64.29;-19735.88;4995773;27;46660;-76
2022/10/05 01:31:19;;;;;;;;;7.67;6.33;;;;;19.94;63.76;-19740.28;5002893;27;45270;-77
2022/10/05 01:34:19;;;;;;;;;5.67;4.00;;;;;19.23;65.62;-19721.59;4997476;27;45346;-76
2022/10/05 01:36:59;;;;;;;;;6.00;6.00;;;;;19.08;66.01;-19717.72;4989400;27;45540;-77
2022/10/05 01:39:49;;;;;;;;;5.00;5.00;;;;;19.31;64.92;-19723.84;4996967;27;45418;-76
2022/10/05 01:42:37;;;;;;;;;9.67;6.00;;;;;19.08;66.01;-19717.72;4994236;27;46800;-76
2022/10/05 01:45:38;;;;;;;;;6.00;4.33;;;;;19.17;66.44;-19720.25;4982158;27;45380;-76
2022/10/05 01:48:18;;;;;;;;;6.00;4.67;;;;;19.16;66.19;-19720.00;5007623;27;45472;-77
2022/10/05 01:51:02;;;;;;;;;7.67;5.33;;;;;19.06;66.90;-19717.19;4993452;27;46032;-77
2022/10/05 01:53:44;;;;;;;;;6.33;5.00;;;;;19.78;65.38;-19736.00;4995907;27;45553;-74
2022/10/05 01:56:18;;;;;;;;;5.33;4.00;;;;;19.91;64.36;-19739.34;5009710;27;45583;-74
2022/10/05 01:58:57;;;;;;;;;6.00;5.00;;;;;19.14;65.62;-19719.47;5007487;27;45395;-74
2022/10/05 02:01:29;;;;;;;;;4.33;4.00;;;;;19.15;66.07;-19719.59;4996793;27;47921;-74
2022/10/05 02:04:26;;;;;;;;;6.00;4.00;;;;;19.03;66.17;-19716.50;4981861;27;45506;-74
2022/10/05 02:06:52;;;;;;;;;4.00;4.00;;;;;19.87;64.11;-19738.41;4995199;27;45575;-75
2022/10/05 02:09:50;;;;;;;;;3.00;3.00;;;;;19.17;65.74;-19720.13;5009431;27;45463;-75
2022/10/05 02:12:23;;;;;;;;;5.33;2.67;;;;;19.09;66.10;-19718.13;5032122;27;45334;-75
2022/10/05 02:14:54;;;;;;;;;2.67;2.67;;;;;19.63;64.98;-19732.13;4997891;27;45401;-75
2022/10/05 02:17:26;;;;;;;;;3.33;3.33;;;;;19.85;64.14;-19737.75;4974385;28;45432;-74
2022/10/05 02:19:58;;;;;;;;;3.00;3.00;;;;;19.99;63.50;-19741.47;4995615;27;46186;-74
2022/10/05 02:22:32;;;;;;;;;3.67;2.33;;;;;20.03;62.71;-19742.69;4979074;27;46288;-74
2022/10/05 02:25:08;;;;;;;;;2.00;2.00;;;;;20.05;62.81;-19743.06;4993506;27;46111;-74
2022/10/05 02:27:40;;;;;;;;;2.00;2.00;;;;;20.11;62.08;-19744.69;5004023;27;45245;-74
2022/10/05 02:30:07;;;;;;;;;1.67;1.67;;;;;19.87;62.73;-19738.28;4985277;27;45569;-74
2022/10/05 02:32:57;;;;;;;;;2.00;2.00;;;;;19.92;62.68;-19739.59;4998334;27;45505;-74
2022/10/05 02:35:22;;;;;;;;;2.00;2.00;;;;;19.92;62.75;-19739.75;4994265;27;45341;-74
2022/10/05 02:37:53;;;;;;;;;3.00;1.00;;;;;19.99;62.42;-19741.63;5003197;27;45553;-74
2022/10/05 02:40:55;;;;;;;;;1.00;1.00;;;;;19.98;62.49;-19741.34;5007854;27;45441;-74
2022/10/05 02:43:26;;;;;;;;;3.00;2.00;;;;;20.05;62.27;-19743.06;4988296;27;46244;-74
2022/10/05 02:45:52;;;;;;;;;3.00;3.00;;;;;19.95;62.29;-19740.53;4995606;27;45364;-74
2022/10/05 02:48:23;;;;;;;;;4.67;2.33;;;;;20.06;61.79;-19743.22;5003063;27;45364;-75
2022/10/05 02:50:51;;;;;;;;;2.00;2.00;;;;;20.09;61.75;-19744.16;4991884;27;45530;-74
2022/10/05 02:53:33;;;;;;;;;2.67;2.00;;;;;20.20;61.58;-19746.94;5001815;27;45380;-74
2022/10/05 02:56:13;;;;;;;;;1.00;1.00;;;;;20.19;62.10;-19746.69;4996642;28;45507;-74
2022/10/05 02:59:15;;;;;;;;;1.33;1.33;;;;;20.11;61.63;-19744.53;5004168;28;45397;-74
2022/10/05 03:01:49;;;;;;;;;2.00;2.00;;;;;20.06;61.62;-19743.34;4991984;27;46728;-74
2022/10/05 03:04:38;;;;;;;;;0.67;0.67;;;;;20.09;61.71;-19744.16;5001696;27;46203;-74
2022/10/05 03:07:25;;;;;;;;;4.00;2.00;;;;;20.15;61.54;-19745.75;4997417;27;45506;-74
2022/10/05 03:10:03;;;;;;;;;1.33;1.00;;;;;20.22;61.73;-19747.59;4999471;27;45444;-74
2022/10/05 03:12:41;;;;;;;;;2.00;1.00;;;;;20.01;61.97;-19742.00;4989760;28;45443;-74
2022/10/05 03:15:27;;;;;;;;;1.00;1.00;;;;;20.19;61.71;-19746.81;5003993;27;45624;-74
2022/10/05 03:17:58;;;;;;;;;2.00;2.00;;;;;20.08;61.70;-19743.75;5000838;27;45483;-74
2022/10/05 03:20:41;;;;;;;;;3.00;3.00;;;;;20.02;61.71;-19742.41;4992710;27;46143;-74
2022/10/05 03:23:17;;;;;;;;;4.00;2.00;;;;;19.96;61.71;-19740.69;4988662;27;45665;-74
2022/10/05 03:25:56;;;;;;;;;2.00;2.00;;;;;20.10;61.47;-19744.28;5008320;27;45351;-74
2022/10/05 03:28:59;;;;;;;;;1.00;1.00;;;;;20.03;61.90;-19742.69;4986518;27;45480;-74
2022/10/05 03:31:57;;;;;;;;;1.00;1.00;;;;;19.86;62.30;-19738.00;4991617;27;45461;-74
2022/10/05 03:34:48;;;;;;;;;4.00;2.33;;;;;19.76;62.18;-19735.47;4978170;27;45464;-74
2022/10/05 03:37:17;;;;;;;;;2.00;2.00;;;;;19.72;62.48;-19734.53;4985906;27;45437;-74
2022/10/05 03:39:53;;;;;;;;;3.67;2.00;;;;;19.49;62.34;-19728.53;4989430;27;45650;-74
2022/10/05 03:42:40;;;;;;;;;2.00;2.00;;;;;19.77;62.49;-19735.75;4992170;27;45479;-74
2022/10/05 03:45:18;;;;;;;;;2.00;2.00;;;;;19.82;61.99;-19737.06;4992779;28;45500;-74
2022/10/05 03:47:58;;;;;;;;;1.00;1.00;;;;;19.78;61.88;-19736.00;4978309;27;45384;-74
2022/10/05 03:50:43;;;;;;;;;2.00;2.00;;;;;19.68;62.31;-19733.34;4980819;27;45294;-74
2022/10/05 03:53:17;;;;;;;;;1.33;1.33;;;;;19.69;62.04;-19733.75;4989878;27;45276;-77
2022/10/05 03:55:53;;;;;;;;;1.00;1.00;;;;;19.64;62.07;-19732.41;4984642;28;45581;-78
2022/10/05 03:58:25;;;;;;;;;2.67;2.33;;;;;19.19;62.18;-19720.78;4989966;27;45453;-77
2022/10/05 04:00:57;;;;;;;;;2.00;1.00;;;;;18.80;64.61;-19710.50;4985718;27;45358;-78
2022/10/05 04:03:33;;;;;;;;;2.00;2.00;;;;;18.65;64.77;-19706.50;4983144;27;45570;-78
2022/10/05 04:06:07;;;;;;;;;2.00;2.00;;;;;18.61;65.54;-19705.56;4995706;27;45503;-77
2022/10/05 04:08:47;;;;;;;;;2.00;2.00;;;;;18.56;65.46;-19704.22;4995021;27;46388;-78
2022/10/05 04:11:19;;;;;;;;;1.00;1.00;;;;;18.52;65.09;-19703.28;4987906;27;45460;-82
2022/10/05 04:13:56;;;;;;;;;2.33;2.33;;;;;19.12;64.10;-19718.78;4987133;27;45578;-78
2022/10/05 04:16:29;;;;;;;;;2.33;2.33;;;;;19.27;63.48;-19722.66;4991942;27;46513;-77
2022/10/05 04:18:57;;;;;;;;;2.00;2.00;;;;;19.28;63.32;-19722.94;4992664;27;46288;-75
2022/10/05 04:21:29;;;;;;;;;3.00;3.00;;;;;19.31;63.03;-19723.72;4996939;27;45574;-78
2022/10/05 04:24:00;;;;;;;;;3.33;2.00;;;;;19.25;62.96;-19722.25;4988780;27;45559;-77
2022/10/05 04:26:31;;;;;;;;;3.00;3.00;;;;;19.18;63.00;-19720.38;4994211;27;45668;-78
2022/10/05 04:29:04;;;;;;;;;2.67;2.33;;;;;19.02;63.30;-19716.25;4972920;27;48825;-77
2022/10/05 04:31:50;;;;;;;;;1.33;1.33;;;;;18.89;63.54;-19712.91;4994708;27;45613;-77
2022/10/05 04:34:51;;;;;;;;;4.00;4.00;;;;;19.06;63.02;-19717.31;4980789;27;45395;-77
2022/10/05 04:37:29;;;;;;;;;1.33;1.33;;;;;18.98;63.57;-19715.31;5018128;28;45454;-77
2022/10/05 04:40:03;;;;;;;;;2.33;2.33;;;;;19.04;63.07;-19716.78;5022174;28;45592;-77
2022/10/05 04:42:46;;;;;;;;;2.67;2.67;;;;;18.29;65.21;-19697.16;5016153;28;45550;-77
2022/10/05 04:45:28;;;;;;;;;3.33;2.00;;;;;18.18;65.46;-19694.19;5000085;28;45461;-77
2022/10/05 04:48:10;;;;;;;;;2.00;2.00;;;;;18.40;64.38;-19699.94;5016660;28;45351;-77
2022/10/05 04:51:04;;;;;;;;;4.00;2.00;;;;;18.07;65.96;-19691.41;5018348;28;46296;-80
2022/10/05 04:53:44;;;;;;;;;2.67;2.00;;;;;18.00;66.48;-19689.53;5020070;28;45465;-81
2022/10/05 04:56:19;;;;;;;;;3.00;3.00;;;;;18.47;65.16;-19701.97;5014827;28;45514;-79
2022/10/05 04:59:00;;;;;;;;;3.67;2.00;;;;;18.67;64.77;-19707.16;5018490;28;45799;-78
2022/10/05 05:01:40;;;;;;;;;3.00;1.00;;;;;18.65;65.21;-19706.50;5010149;28;46830;-79
2022/10/05 05:04:12;;;;;;;;;2.33;2.00;;;;;18.75;64.38;-19709.31;5008846;28;45531;-79
2022/10/05 05:06:37;;;;;;;;;1.33;1.33;;;;;18.75;64.75;-19709.16;5009824;28;45821;-78
2022/10/05 05:09:17;;;;;;;;;2.33;2.00;;;;;18.27;64.30;-19696.75;5013085;28;46074;-79
2022/10/05 05:12:10;;;;;;;;;3.00;2.00;;;;;17.92;66.55;-19687.66;5018779;28;46924;-80
2022/10/05 05:15:12;;;;;;;;;3.33;2.00;;;;;18.33;65.33;-19698.34;5007119;27;45382;-77
2022/10/05 05:17:46;;;;;;;;;3.00;3.00;;;;;18.55;65.06;-19703.97;5016706;27;45304;-76
2022/10/05 05:20:24;;;;;;;;;2.00;2.00;;;;;18.59;64.93;-19705.03;5017684;27;45480;-75
2022/10/05 05:23:02;;;;;;;;;3.00;3.00;;;;;18.49;65.10;-19702.34;4994632;27;47679;-76
2022/10/05 05:25:48;;;;;;;;;2.00;2.00;;;;;18.45;64.85;-19701.28;4972628;28;45646;-75
2022/10/05 05:28:38;;;;;;;;;0.00;0.00;;;;;18.50;64.64;-19702.75;5002424;27;45433;-74
2022/10/05 05:31:15;;;;;;;;;2.00;2.00;;;;;18.47;64.96;-19701.97;4996514;27;45336;-74
2022/10/05 05:34:09;;;;;;;;;4.67;2.00;;;;;18.58;64.76;-19704.63;4996703;27;46478;-74
2022/10/05 05:36:53;;;;;;;;;2.00;2.00;;;;;18.57;65.02;-19704.50;4999093;27;45440;-78
2022/10/05 05:40:02;;;;;;;;;4.00;2.00;;;;;18.46;64.73;-19701.56;5049244;27;45393;-75
2022/10/05 05:42:42;;;;;;;;;2.00;2.00;;;;;18.49;64.60;-19702.34;5037249;28;45633;-76
2022/10/05 05:45:18;;;;;;;;;2.67;1.33;;;;;18.33;65.04;-19698.34;5029790;28;45570;-77
2022/10/05 05:47:50;;;;;;;;;2.00;2.00;;;;;18.34;65.23;-19698.47;5038857;28;45863;-78
2022/10/05 05:50:29;;;;;;;;;2.33;2.33;;;;;18.34;65.24;-19698.47;5031297;28;45357;-78
2022/10/05 05:53:11;;;;;;;;;4.00;3.00;;;;;18.38;65.32;-19699.56;5023306;28;45523;-75
2022/10/05 05:55:50;;;;;;;;;3.00;3.00;;;;;18.38;64.75;-19699.56;5019112;28;48014;-75
2022/10/05 05:58:22;;;;;;;;;1.33;1.33;;;;;18.36;65.01;-19699.00;5015856;28;45640;-75
2022/10/05 06:01:00;;;;;;;;;3.00;3.00;;;;;18.29;64.92;-19697.28;5025649;28;45471;-75
2022/10/05 06:03:58;;;;;;;;;3.00;3.00;;;;;18.40;65.10;-19699.94;5026082;28;45382;-74
2022/10/05 06:06:29;;;;;;;;;4.67;3.00;;;;;18.46;64.64;-19701.56;5004648;28;47569;-74
2022/10/05 06:09:02;;;;;;;;;3.33;2.33;;;;;18.34;65.25;-19698.47;5013735;28;45470;-74
2022/10/05 06:11:41;;;;;;;;;2.67;2.67;;;;;18.51;64.28;-19702.88;5015832;28;45299;-74
2022/10/05 06:14:26;;;;;;;;;2.67;2.00;;;;;18.44;65.00;-19701.16;5020633;28;45736;-74
2022/10/05 06:17:04;;;;;;;;;4.00;2.00;;;;;18.47;64.53;-19701.81;4980887;28;46508;-74
2022/10/05 06:19:33;;;;;;;;;2.67;2.67;;;;;18.50;64.59;-19702.75;4975479;28;45499;-74
2022/10/05 06:22:12;;;;;;;;;3.00;3.00;;;;;18.38;64.35;-19699.56;4975528;28;45416;-74
2022/10/05 06:24:46;;;;;;;;;2.33;2.33;;;;;18.38;64.67;-19699.41;4975713;28;45371;-74
2022/10/05 06:27:38;;;;;;;;;3.00;3.00;;;;;18.31;65.38;-19697.69;4973465;28;46998;-74
2022/10/05 06:30:12;;;;;;;;;2.00;2.00;;;;;17.87;65.49;-19686.19;4975316;28;45289;-74
2022/10/05 06:32:52;;;;;;;;;2.00;2.00;;;;;18.34;65.09;-19698.63;4975538;28;45329;-74
2022/10/05 06:35:32;;;;;;;;;2.00;2.00;;;;;18.46;65.07;-19701.56;4975682;28;45331;-74
2022/10/05 06:38:00;;;;;;;;;2.00;2.00;;;;;18.48;64.93;-19702.09;4975382;28;46032;-73
2022/10/05 06:40:50;;;;;;;;;2.67;2.00;;;;;18.43;65.04;-19700.75;4961540;28;45456;-73
2022/10/05 06:43:24;;;;;;;;;2.00;2.00;;;;;18.39;65.40;-19699.69;4973974;28;45342;-74
2022/10/05 06:46:08;;;;;;;;;3.33;2.00;;;;;18.41;65.14;-19700.34;4975485;28;45383;-73
2022/10/05 06:48:46;;;;;;;;;2.67;2.67;;;;;18.41;64.84;-19700.22;4972425;28;48252;-74
2022/10/05 06:51:15;;;;;;;;;3.00;3.00;;;;;18.52;65.12;-19703.16;4985982;27;45251;-74
2022/10/05 06:53:55;;;;;;;;;2.67;2.67;;;;;18.50;64.72;-19702.63;4995180;27;45350;-75
2022/10/05 06:56:30;;;;;;;;;3.00;3.00;;;;;18.49;64.70;-19702.34;4995196;28;45370;-75
2022/10/05 06:59:11;;;;;;;;;3.33;3.33;;;;;18.50;64.70;-19702.63;4994825;27;46266;-75
2022/10/05 07:01:50;;;;;;;;;3.00;3.00;;;;;18.49;64.89;-19702.34;4995091;28;45345;-74
2022/10/05 07:04:34;;;;;;;;;3.00;3.00;;;;;18.48;64.97;-19702.09;4994900;27;45325;-75
2022/10/05 07:07:10;;;;;;;;;3.00;3.00;;;;;18.46;65.16;-19701.69;4994940;27;45432;-74
2022/10/05 07:10:08;;;;;;;;;2.67;2.67;;;;;18.53;65.40;-19703.41;4994410;27;45720;-74
2022/10/05 07:12:48;;;;;;;;;2.67;2.00;;;;;18.53;65.55;-19703.41;4994554;27;45378;-75
2022/10/05 07:15:27;;;;;;;;;2.00;2.00;;;;;18.61;65.39;-19705.56;4994683;27;45480;-74
2022/10/05 07:18:15;;;;;;;;;2.00;2.00;;;;;18.35;65.08;-19698.75;4995014;27;45393;-74
2022/10/05 07:20:49;;;;;;;;;2.00;2.00;;;;;18.83;65.06;-19711.31;4999407;27;46240;-75
2022/10/05 07:23:28;;;;;;;;;2.00;2.00;;;;;18.85;64.88;-19711.84;4994438;27;45398;-75
2022/10/05 07:26:05;;;;;;;;;3.00;3.00;;;;;18.90;64.58;-19713.03;4994598;27;45315;-74
2022/10/05 07:28:30;;;;;;;;;4.00;4.00;;;;;19.00;64.74;-19715.72;4994768;27;45520;-74
2022/10/05 07:31:05;;;;;;;;;3.00;3.00;;;;;18.88;64.99;-19712.66;4994588;27;45440;-74
2022/10/05 07:34:10;;;;;;;;;3.00;3.00;;;;;19.01;64.69;-19716.00;4994147;27;45254;-74
2022/10/05 07:40:07;;;;;;;;;5.00;3.00;;;;;19.09;64.34;-19718.00;4994401;27;45307;-75
2022/10/05 07:42:39;;;;;;;;;5.00;3.00;;;;;19.08;64.49;-19717.72;4994269;27;45491;-74
2022/10/05 07:45:23;;;;;;;;;5.67;3.33;;;;;19.00;64.47;-19715.72;4994117;28;45380;-74
2022/10/05 07:47:53;;;;;;;;;3.67;3.00;;;;;19.01;64.75;-19715.84;4994507;27;45545;-75
2022/10/05 07:50:40;;;;;;;;;3.33;2.33;;;;;19.06;65.04;-19717.19;4994287;27;45306;-74
2022/10/05 07:53:15;;;;;;;;;2.33;1.00;;;;;19.07;65.60;-19717.44;4993850;27;46302;-74
2022/10/05 07:55:48;;;;;;;;;2.33;2.33;;;;;19.19;64.30;-19720.78;4994055;27;45367;-75
2022/10/05 07:58:30;;;;;;;;;2.67;2.67;;;;;19.21;64.44;-19721.19;4994252;28;45303;-74
2022/10/05 08:01:33;;;;;;;;;4.00;2.00;;;;;19.32;64.09;-19724.13;4981811;27;45435;-75
2022/10/05 08:04:07;;;;;;;;;2.00;2.00;;;;;19.41;64.06;-19726.41;4990008;27;46791;-75
2022/10/05 08:06:50;;;;;;;;;2.00;2.00;;;;;19.72;63.38;-19734.41;4985382;27;45313;-74
2022/10/05 08:09:53;;;;;;;;;2.67;2.67;;;;;19.92;62.71;-19739.75;4993572;28;45393;-75
2022/10/05 08:12:49;;;;;;;;;2.00;2.00;;;;;20.10;62.15;-19744.28;4994201;27;45448;-75
2022/10/05 08:15:24;;;;;;;;;2.00;2.00;;;;;20.07;62.31;-19743.63;4992636;27;45934;-74
2022/10/05 08:17:58;;;;;;;;;2.00;2.00;;;;;20.09;62.42;-19744.00;4993722;27;45486;-75
2022/10/05 08:20:43;;;;;;;;;2.00;1.33;;;;;19.99;62.67;-19741.63;4994077;27;45407;-75
2022/10/05 08:23:27;;;;;;;;;2.67;2.67;;;;;20.22;62.23;-19747.59;4993589;27;45382;-74
2022/10/05 08:25:52;;;;;;;;;3.00;3.00;;;;;20.32;62.04;-19750.16;4993787;27;46059;-75
2022/10/05 08:28:32;;;;;;;;;2.00;2.00;;;;;20.49;61.74;-19754.41;4993608;27;45516;-75
2022/10/05 08:31:12;;;;;;;;;3.00;1.00;;;;;20.41;62.28;-19752.53;4993923;27;45266;-74
2022/10/05 08:34:08;;;;;;;;;1.33;1.33;;;;;20.55;61.44;-19756.00;4993740;27;45474;-75
2022/10/05 08:36:52;;;;;;;;;2.00;2.00;;;;;20.59;61.40;-19757.09;4996598;27;48150;-74
2022/10/05 08:39:19;;;;;;;;;1.00;1.00;;;;;20.65;61.93;-19758.81;4993531;28;45462;-74
2022/10/05 08:42:20;;;;;;;;;2.67;2.33;;;;;20.70;61.64;-19760.00;5066489;27;45336;-77
2022/10/05 08:45:10;;;;;;;;;2.00;2.00;;;;;20.73;61.48;-19760.81;4995197;28;45428;-75
2022/10/05 08:47:47;;;;;;;;;2.00;2.00;;;;;20.69;61.29;-19759.63;4993477;27;45275;-75
2022/10/05 08:50:32;;;;;;;;;2.00;2.00;;;;;20.82;61.72;-19763.22;4995712;27;45267;-74
2022/10/05 08:53:35;;;;;;;;;2.00;2.00;;;;;20.95;61.58;-19766.53;4996583;27;45304;-75
2022/10/05 08:56:12;;;;;;;;;1.00;1.00;;;;;21.03;60.73;-19768.53;4996820;27;45291;-75
2022/10/05 08:59:02;;;;;;;;;2.33;1.67;;;;;21.05;60.67;-19769.22;4996034;27;46127;-75
2022/10/05 09:02:02;;;;;;;;;3.00;3.00;;;;;21.11;60.51;-19770.53;4996331;27;45414;-75
2022/10/05 09:04:46;;;;;;;;;2.00;2.00;;;;;21.18;60.34;-19772.53;4996327;27;45424;-75
2022/10/05 09:07:39;;;;;;;;;3.00;3.00;;;;;21.27;60.53;-19774.94;4996528;27;45388;-75
2022/10/05 09:10:19;;;;;;;;;4.00;2.00;;;;;21.33;60.16;-19776.41;4996288;27;45569;-74
2022/10/05 09:12:53;;;;;;;;;2.00;2.00;;;;;21.29;60.14;-19775.34;5027795;27;45247;-74
2022/10/05 09:15:21;;;;;;;;;2.00;2.00;;;;;21.33;60.70;-19776.41;5030065;27;45619;-75
2022/10/05 09:17:49;;;;;;;;;2.00;2.00;;;;;21.05;60.30;-19769.22;5069253;27;45539;-74
2022/10/05 09:20:42;;;;;;;;;2.00;2.00;;;;;21.46;60.07;-19779.72;5037741;27;45384;-74
2022/10/05 09:23:17;;;;;;;;;2.00;2.00;;;;;21.53;59.83;-19781.59;5007545;27;45316;-75
2022/10/05 09:26:07;;;;;;;;;3.00;2.67;;;;;21.49;59.76;-19780.66;4996384;27;45453;-75
2022/10/05 09:29:00;;;;;;;;;2.67;2.00;;;;;21.49;59.48;-19780.66;4996361;27;45402;-75
2022/10/05 09:31:50;;;;;;;;;3.67;3.00;;;;;21.43;58.47;-19779.06;4995649;27;45220;-74
2022/10/05 09:34:43;;;;;;;;;2.00;2.00;;;;;21.40;58.33;-19778.13;4995786;27;45409;-76
2022/10/05 09:37:47;;;;;;;;;1.00;1.00;;;;;21.43;58.19;-19778.94;4983590;27;45380;-75
2022/10/05 09:40:34;;;;;;;;;1.00;1.00;;;;;21.51;58.50;-19781.06;4987174;28;45502;-75
2022/10/05 09:43:02;;;;;;;;;1.00;1.00;;;;;21.58;58.25;-19782.91;4995859;27;47250;-75
2022/10/05 09:45:47;;;;;;;;;2.00;2.00;;;;;21.83;57.45;-19789.44;4995392;27;45442;-75
2022/10/05 09:48:31;;;;;;;;;3.00;2.00;;;;;21.85;57.00;-19789.84;5068860;27;45262;-75
2022/10/05 09:51:18;;;;;;;;;2.00;2.00;;;;;21.80;57.17;-19788.50;4974953;28;45460;-74
2022/10/05 09:54:17;;;;;;;;;2.33;1.00;;;;;21.72;57.03;-19786.50;4976066;28;45520;-74
2022/10/05 09:56:56;;;;;;;;;2.00;2.00;;;;;21.66;56.82;-19784.91;4975957;28;45352;-73
2022/10/05 09:59:51;;;;;;;;;4.67;2.00;;;;;21.48;56.24;-19780.38;4976010;28;45416;-74
2022/10/05 10:02:22;;;;;;;;;4.33;2.67;;;;;21.40;56.96;-19778.25;5056270;28;45606;-73
2022/10/05 10:05:04;;;;;;;;;1.67;1.67;;;;;21.34;56.61;-19776.66;5055860;28;46028;-74
2022/10/05 10:07:49;;;;;;;;;2.33;2.00;;;;;21.14;56.98;-19771.47;5055870;28;45429;-74
2022/10/05 10:10:42;;;;;;;;;2.00;2.00;;;;;21.30;56.31;-19775.59;5039149;28;45492;-76
2022/10/05 10:13:10;;;;;;;;;2.00;2.00;;;;;21.47;55.88;-19780.13;5039800;28;45477;-74
2022/10/05 10:15:38;;;;;;;;;1.67;1.67;;;;;21.68;56.32;-19785.44;5055753;28;46435;-74
2022/10/05 10:18:15;;;;;;;;;2.00;2.00;;;;;21.70;55.37;-19786.13;5055776;28;45355;-74
2022/10/05 10:21:38;;;;;;;;;2.00;2.00;;;;;21.76;55.38;-19787.44;5056095;28;45518;-74
2022/10/05 10:24:13;;;;;;;;;1.67;1.67;;;;;21.80;55.38;-19788.66;4937678;28;45385;-74
2022/10/05 10:27:08;;;;;;;;;1.00;1.00;;;;;21.80;54.91;-19788.66;4921287;28;46236;-74
2022/10/05 10:29:52;;;;;;;;;1.00;1.00;;;;;21.77;55.78;-19787.72;4937247;28;45290;-74
2022/10/05 10:32:41;;;;;;;;;2.00;2.00;;;;;21.70;55.61;-19785.97;4937455;28;45416;-74
2022/10/05 10:35:26;;;;;;;;;3.00;1.33;;;;;21.69;55.40;-19785.72;4937380;28;45667;-74
2022/10/05 10:37:58;;;;;;;;;2.25;1.50;;;;;21.63;55.51;-19784.13;4936759;28;46555;-74
2022/10/05 10:40:24;;;;;;;;;0.75;0.75;;;;;21.72;55.68;-19786.50;4877208;29;45396;-74
2022/10/05 10:43:40;;;;;;;;;0.50;0.50;;;;;21.80;56.18;-19788.50;4877393;29;45380;-74
2022/10/05 10:46:05;;;;;;;;;1.00;1.00;;;;;21.81;55.63;-19788.91;4858882;28;45514;-74
2022/10/05 10:48:56;;;;;;;;;1.00;1.00;;;;;21.91;56.10;-19791.56;4858017;28;46104;-74
2022/10/05 10:51:39;;;;;;;;;2.00;1.00;;;;;22.43;54.73;-19805.00;4908536;28;45559;-73
2022/10/05 10:54:39;;;;;;;;;1.00;1.00;;;;;23.00;54.48;-19819.75;4853659;28;45418;-74
2022/10/05 10:57:10;;;;;;;;;1.00;1.00;;;;;23.18;53.27;-19824.41;4915635;28;45603;-74
2022/10/05 11:00:14;;;;;;;;;1.25;1.25;;;;;25.05;50.86;-19872.97;4915281;28;46871;-75
2022/10/05 11:03:16;;;;;;;;;0.50;0.50;;;;;26.41;47.57;-19908.03;4914852;28;45461;-74
2022/10/05 11:06:02;;;;;;;;;1.00;1.00;;;;;27.64;45.77;-19939.75;4915258;28;45476;-74
2022/10/05 11:08:56;;;;;;;;;0.25;0.25;;;;;28.69;43.52;-19966.66;4980545;28;45433;-74
2022/10/05 11:11:35;;;;;;;;;1.75;1.75;;;;;29.44;42.07;-19986.16;4947396;28;47142;-74
2022/10/05 11:14:26;;;;;;;;;0.00;0.00;;;;;30.35;40.16;-20009.31;4931969;28;45566;-78
2022/10/05 11:17:22;;;;;;;;;1.00;1.00;;;;;30.67;38.66;-20017.56;4869243;29;45527;-74
2022/10/05 11:20:03;;;;;;;;;1.00;1.00;;;;;31.03;37.24;-19341.22;4858679;28;45536;-75
2022/10/05 11:22:43;;;;;;;;;1.50;1.50;;;;;31.20;37.75;-19003.44;4878171;28;46717;-76
2022/10/05 11:25:26;;;;;;;;;2.00;0.25;;;;;31.46;37.38;-18325.53;4914883;28;45595;-75
2022/10/05 11:28:13;;;;;;;;;0.50;0.50;;;;;31.57;36.49;-16959.09;4914953;28;45435;-74
2022/10/05 11:31:26;;;;;;;;;1.50;0.50;;;;;31.83;36.30;-16622.06;4914796;28;45411;-75
2022/10/05 11:34:16;;;;;;;;;1.00;1.00;;;;;31.72;35.85;-14222.13;4914612;28;45432;-76
2022/10/05 11:36:53;;;;;;;;;0.75;0.75;;;;;31.43;36.03;-13532.19;4914507;28;45484;-75
2022/10/05 11:39:40;;;;;;;;;0.25;0.25;;;;;31.24;36.64;-13529.28;4914797;28;45373;-75
2022/10/05 11:42:24;;;;;;;;;0.00;0.00;;;;;31.28;36.53;-13187.41;4915049;28;45546;-76
2022/10/05 11:45:23;;;;;;;;;1.00;1.00;;;;;31.28;36.66;-13187.41;4914279;28;47269;-74
2022/10/05 11:48:37;;;;;;;;;1.00;1.00;;;;;31.34;36.15;-12845.88;4914356;28;45563;-75
2022/10/05 11:51:36;;;;;;;;;1.00;1.00;;;;;31.29;36.74;-12845.06;4867014;28;45421;-75
2022/10/05 11:54:16;;;;;;;;;1.00;1.00;;;;;31.23;36.11;-12159.19;4897409;28;45343;-76
2022/10/05 11:56:58;;;;;;;;;1.50;1.00;;;;;31.10;36.27;-11814.97;4914194;28;46019;-76
2022/10/05 11:59:56;;;;;;;;;2.00;1.00;;;;;30.85;36.84;-11811.75;4913795;28;45295;-76
2022/10/05 12:02:43;;;;;;;;;0.00;0.00;;;;;30.65;37.27;-11809.13;4910831;28;45402;-74
2022/10/05 12:05:27;;;;;;;;;1.00;1.00;;;;;30.50;37.19;-11122.84;4914655;28;45412;-74
2022/10/05 12:08:30;;;;;;;;;1.00;1.00;;;;;30.39;37.67;-11805.78;4914010;28;46228;-75
2022/10/05 12:11:14;;;;;;;;;1.00;0.00;;;;;30.30;37.72;-11804.69;4911957;28;45573;-74
2022/10/05 12:13:50;;;;;;;;;1.00;1.00;;;;;30.21;38.26;-11803.56;4898473;28;45490;-77
2022/10/05 12:16:15;;;;;;;;;2.00;1.00;;;;;30.23;38.75;-12829.84;4913775;28;45536;-74
2022/10/05 12:18:47;;;;;;;;;1.00;1.00;;;;;30.38;38.63;-13173.97;4913889;28;45685;-74
2022/10/05 12:21:26;;;;;;;;;2.00;1.50;;;;;30.27;38.13;-12146.34;4913065;28;45538;-74
2022/10/05 12:24:20;;;;;;;;;2.00;1.00;;;;;30.01;38.53;-12484.81;4913301;28;45618;-81
2022/10/05 12:27:12;;;;;;;;;2.50;1.25;;;;;29.84;38.78;-12482.47;4969541;28;45660;-76
2022/10/05 12:29:55;;;;;;;;;1.00;1.00;;;;;29.50;39.02;-12136.00;4973279;28;45460;-78
2022/10/05 12:32:30;;;;;;;;;3.00;1.75;;;;;29.50;39.60;-13160.75;4959973;28;45475;-77